Time;durP1;ratioP1;P1;durP2;ratioP2;P2;SDS_P1;SDS_P2;PMS_P1;PMS_P2;Temp;Humidity;BMP_temperature;BMP_pressure;BME280_temperature;BME280_humidity;BME280_pressure;Samples;Min_cycle;Max_cycle;Signal;HPM_P1;HPM_P2
2021/07/23 00:01:09;;;;;;;6.90;6.27;;;;;;;;;;5015841;28;20452;-76
2021/07/23 00:03:36;;;;;;;7.97;6.40;;;;;;;;;;5015208;28;20468;-76
2021/07/23 00:06:04;;;;;;;9.07;7.57;;;;;;;;;;5015376;28;20478;-75
2021/07/23 00:08:31;;;;;;;10.73;7.10;;;;;;;;;;5015116;28;20453;-75
2021/07/23 00:10:58;;;;;;;7.27;6.57;;;;;;;;;;5014567;28;20448;-75
2021/07/23 00:13:25;;;;;;;7.43;6.83;;;;;;;;;;5015305;28;20441;-77
2021/07/23 00:15:53;;;;;;;7.17;6.40;;;;;;;;;;5016181;28;20443;-75
2021/07/23 00:18:22;;;;;;;10.20;7.03;;;;;;;;;;5015394;28;20457;-75
2021/07/23 00:20:49;;;;;;;7.57;6.90;;;;;;;;;;5014965;28;20445;-76
2021/07/23 00:23:16;;;;;;;6.93;6.30;;;;;;;;;;5015175;28;20554;-78
2021/07/23 00:25:44;;;;;;;10.93;6.80;;;;;;;;;;5015739;28;20454;-76
2021/07/23 00:28:11;;;;;;;7.50;6.80;;;;;;;;;;5015214;28;21020;-76
2021/07/23 00:30:38;;;;;;;12.07;7.27;;;;;;;;;;5015113;28;20452;-78
2021/07/23 00:33:05;;;;;;;7.63;6.93;;;;;;;;;;5014762;28;20444;-77
2021/07/23 00:35:34;;;;;;;8.80;7.57;;;;;;;;;;5014537;28;20459;-77
2021/07/23 00:38:01;;;;;;;8.00;6.40;;;;;;;;;;5014924;28;20474;-77
2021/07/23 00:40:28;;;;;;;8.60;7.10;;;;;;;;;;5015120;28;20454;-75
2021/07/23 00:42:55;;;;;;;12.70;6.90;;;;;;;;;;5014957;28;20506;-75
2021/07/23 00:45:23;;;;;;;14.03;10.07;;;;;;;;;;5014612;28;20948;-76
2021/07/23 00:47:52;;;;;;;14.13;7.30;;;;;;;;;;5014885;28;20447;-76
2021/07/23 00:50:20;;;;;;;8.33;7.53;;;;;;;;;;5014456;28;20458;-77
2021/07/23 00:52:49;;;;;;;10.53;6.70;;;;;;;;;;5014737;28;20453;-76
2021/07/23 00:55:17;;;;;;;10.70;7.40;;;;;;;;;;5014943;28;20447;-76
2021/07/23 00:57:45;;;;;;;11.60;7.50;;;;;;;;;;5014890;28;20460;-76
2021/07/23 01:00:13;;;;;;;10.63;7.43;;;;;;;;;;5015363;28;20970;-76
2021/07/23 01:02:40;;;;;;;7.70;6.90;;;;;;;;;;5014417;28;20493;-76
2021/07/23 01:05:08;;;;;;;8.93;7.90;;;;;;;;;;5014483;28;20471;-77
2021/07/23 01:07:36;;;;;;;7.53;6.80;;;;;;;;;;5014398;28;20434;-77
2021/07/23 01:10:05;;;;;;;8.37;7.30;;;;;;;;;;5014765;28;20440;-78
2021/07/23 01:12:34;;;;;;;7.30;6.60;;;;;;;;;;5014306;28;20449;-77
2021/07/23 01:15:01;;;;;;;9.87;7.30;;;;;;;;;;5014338;28;20432;-78
2021/07/23 01:17:29;;;;;;;8.73;7.93;;;;;;;;;;5014332;28;20809;-77
2021/07/23 01:19:59;;;;;;;7.67;6.97;;;;;;;;;;5014295;28;20568;-77
2021/07/23 01:22:27;;;;;;;8.10;7.30;;;;;;;;;;5014082;28;20440;-77
2021/07/23 01:24:56;;;;;;;8.03;7.13;;;;;;;;;;5014219;28;20776;-77
2021/07/23 01:27:24;;;;;;;7.87;7.17;;;;;;;;;;5014481;28;20437;-77
2021/07/23 01:29:51;;;;;;;10.50;7.67;;;;;;;;;;5014035;28;20450;-77
2021/07/23 01:32:18;;;;;;;8.90;7.13;;;;;;;;;;5014064;28;20449;-77
2021/07/23 01:34:45;;;;;;;12.60;7.47;;;;;;;;;;5014324;28;20439;-78
2021/07/23 01:37:12;;;;;;;9.10;8.17;;;;;;;;;;5013712;28;20546;-77
2021/07/23 01:39:40;;;;;;;8.57;7.77;;;;;;;;;;5014230;28;20797;-77
2021/07/23 01:42:08;;;;;;;8.47;7.63;;;;;;;;;;5013804;28;20447;-76
2021/07/23 01:44:36;;;;;;;9.20;8.30;;;;;;;;;;5013829;28;20483;-77
2021/07/23 01:47:03;;;;;;;9.53;7.77;;;;;;;;;;5014315;28;20449;-76
2021/07/23 01:49:30;;;;;;;8.70;7.90;;;;;;;;;;5013574;28;20460;-76
2021/07/23 01:51:57;;;;;;;9.60;7.77;;;;;;;;;;5013611;28;20522;-77
2021/07/23 01:54:25;;;;;;;8.63;7.70;;;;;;;;;;5013506;28;20448;-77
2021/07/23 01:56:52;;;;;;;11.20;7.17;;;;;;;;;;5013832;28;20472;-77
2021/07/23 01:59:20;;;;;;;9.77;7.93;;;;;;;;;;5013784;28;20459;-76
2021/07/23 02:01:47;;;;;;;11.97;7.83;;;;;;;;;;5013351;28;20960;-77
2021/07/23 02:04:15;;;;;;;9.50;8.60;;;;;;;;;;5013482;28;20865;-77
2021/07/23 02:06:42;;;;;;;8.67;7.83;;;;;;;;;;5049895;22;20481;-78
2021/07/23 02:09:09;;;;;;;9.13;8.10;;;;;;;;;;5073115;28;20450;-78
2021/07/23 02:11:36;;;;;;;9.93;8.30;;;;;;;;;;5073113;28;20444;-78
2021/07/23 02:14:06;;;;;;;10.83;7.80;;;;;;;;;;5073079;28;20537;-78
2021/07/23 02:16:35;;;;;;;9.33;8.40;;;;;;;;;;5073498;28;20479;-77
2021/07/23 02:19:02;;;;;;;11.23;8.67;;;;;;;;;;5073408;28;20445;-78
2021/07/23 02:21:29;;;;;;;7.80;7.10;;;;;;;;;;5073316;28;20447;-78
2021/07/23 02:23:56;;;;;;;12.10;8.50;;;;;;;;;;5072888;28;20486;-78
2021/07/23 02:26:24;;;;;;;16.73;10.23;;;;;;;;;;5072950;28;20457;-78
2021/07/23 02:28:51;;;;;;;11.77;8.80;;;;;;;;;;5072989;28;20444;-78
2021/07/23 02:31:19;;;;;;;10.30;9.00;;;;;;;;;;5073167;28;20441;-78
2021/07/23 02:33:47;;;;;;;9.10;8.20;;;;;;;;;;5073793;28;20448;-78
2021/07/23 02:36:15;;;;;;;9.30;8.27;;;;;;;;;;5076795;28;20452;-78
2021/07/23 02:38:42;;;;;;;10.53;7.90;;;;;;;;;;5077499;28;20787;-78
2021/07/23 02:41:09;;;;;;;10.13;8.73;;;;;;;;;;5076615;28;20446;-78
2021/07/23 02:43:36;;;;;;;10.80;8.50;;;;;;;;;;5076480;28;20522;-78
2021/07/23 02:46:04;;;;;;;16.20;9.20;;;;;;;;;;5077046;28;20443;-78
2021/07/23 02:48:31;;;;;;;12.67;8.73;;;;;;;;;;5076786;28;20451;-78
2021/07/23 02:50:59;;;;;;;9.00;8.10;;;;;;;;;;5077057;28;20918;-78
2021/07/23 02:53:26;;;;;;;8.80;7.97;;;;;;;;;;5076652;28;20450;-78
2021/07/23 02:55:54;;;;;;;13.30;9.20;;;;;;;;;;5076654;28;20449;-77
2021/07/23 02:58:21;;;;;;;10.87;8.20;;;;;;;;;;5076626;28;20442;-77
2021/07/23 03:00:48;;;;;;;8.40;7.60;;;;;;;;;;5076515;28;20441;-78
2021/07/23 03:03:16;;;;;;;12.37;8.30;;;;;;;;;;5076476;28;20905;-78
2021/07/23 03:05:43;;;;;;;11.13;9.13;;;;;;;;;;5076161;28;20941;-78
2021/07/23 03:08:12;;;;;;;10.07;9.03;;;;;;;;;;5076382;28;20484;-78
2021/07/23 03:10:39;;;;;;;11.07;9.80;;;;;;;;;;5076390;28;20532;-78
2021/07/23 03:13:06;;;;;;;14.90;9.80;;;;;;;;;;5076505;28;20439;-78
2021/07/23 03:15:34;;;;;;;10.30;9.37;;;;;;;;;;5076422;28;20443;-78
2021/07/23 03:18:01;;;;;;;14.00;9.60;;;;;;;;;;5076373;28;20805;-78
2021/07/23 03:20:28;;;;;;;10.13;8.70;;;;;;;;;;5076238;28;20441;-79
2021/07/23 03:22:55;;;;;;;10.70;9.60;;;;;;;;;;5075879;28;20448;-78
2021/07/23 03:25:24;;;;;;;10.13;9.00;;;;;;;;;;5076058;28;20481;-78
2021/07/23 03:27:51;;;;;;;10.27;9.00;;;;;;;;;;5076165;28;20973;-79
2021/07/23 03:30:18;;;;;;;10.80;8.80;;;;;;;;;;5076071;28;20800;-79
2021/07/23 03:32:45;;;;;;;12.27;10.27;;;;;;;;;;5075744;28;20957;-78
2021/07/23 03:35:13;;;;;;;20.07;9.53;;;;;;;;;;5076298;28;20794;-78
2021/07/23 03:37:40;;;;;;;11.40;9.00;;;;;;;;;;5076197;28;20535;-78
2021/07/23 03:40:08;;;;;;;12.40;9.70;;;;;;;;;;5075828;28;20443;-78
2021/07/23 03:42:36;;;;;;;11.23;9.40;;;;;;;;;;5075812;28;20440;-77
2021/07/23 03:45:04;;;;;;;12.73;10.33;;;;;;;;;;5075133;28;20477;-78
2021/07/23 03:47:31;;;;;;;11.23;10.03;;;;;;;;;;5075721;28;20441;-78
2021/07/23 03:49:58;;;;;;;11.13;9.27;;;;;;;;;;5075687;28;20781;-78
2021/07/23 03:52:25;;;;;;;11.73;10.40;;;;;;;;;;5075305;28;20456;-78
2021/07/23 03:54:52;;;;;;;16.37;9.50;;;;;;;;;;5075694;28;20615;-78
2021/07/23 03:57:19;;;;;;;10.73;9.73;;;;;;;;;;5075398;28;20801;-78
2021/07/23 03:59:48;;;;;;;10.53;9.23;;;;;;;;;;5075521;28;20532;-78
2021/07/23 04:02:15;;;;;;;11.57;9.07;;;;;;;;;;5075184;28;20450;-78
2021/07/23 04:04:42;;;;;;;10.40;9.10;;;;;;;;;;5075044;28;20468;-77
2021/07/23 04:07:09;;;;;;;13.23;10.10;;;;;;;;;;5075058;28;20473;-78
2021/07/23 04:09:37;;;;;;;11.90;9.97;;;;;;;;;;5075302;28;20437;-76
2021/07/23 04:12:04;;;;;;;10.73;9.50;;;;;;;;;;5075050;28;20527;-78
2021/07/23 04:14:31;;;;;;;9.73;8.73;;;;;;;;;;5074988;28;20491;-78
2021/07/23 04:17:00;;;;;;;12.07;9.50;;;;;;;;;;5074792;28;20457;-76
2021/07/23 04:19:27;;;;;;;11.93;10.47;;;;;;;;;;5074734;28;20442;-78
2021/07/23 04:21:54;;;;;;;10.50;9.40;;;;;;;;;;5074703;28;20444;-78
2021/07/23 04:24:21;;;;;;;13.80;11.47;;;;;;;;;;5075585;28;20488;-71
2021/07/23 04:26:49;;;;;;;12.33;9.97;;;;;;;;;;5074991;28;20450;-72
2021/07/23 04:29:16;;;;;;;14.80;9.10;;;;;;;;;;5063493;28;21013;-73
2021/07/23 04:31:43;;;;;;;10.80;9.13;;;;;;;;;;5073698;28;20464;-73
2021/07/23 04:34:12;;;;;;;14.97;9.80;;;;;;;;;;5074640;28;20544;-73
2021/07/23 04:36:39;;;;;;;12.27;10.13;;;;;;;;;;5074478;28;20484;-74
2021/07/23 04:39:07;;;;;;;11.77;10.57;;;;;;;;;;5075314;28;20484;-73
2021/07/23 04:41:34;;;;;;;12.83;9.47;;;;;;;;;;5074633;28;20441;-73
2021/07/23 04:44:01;;;;;;;12.93;8.20;;;;;;;;;;5075282;28;20469;-73
2021/07/23 04:46:29;;;;;;;12.53;8.50;;;;;;;;;;5074565;28;20445;-72
2021/07/23 04:48:56;;;;;;;10.80;8.97;;;;;;;;;;5074602;28;20441;-73
2021/07/23 04:51:24;;;;;;;13.63;9.10;;;;;;;;;;5074390;28;20441;-73
2021/07/23 04:53:51;;;;;;;10.73;9.70;;;;;;;;;;5074467;28;20451;-73
2021/07/23 04:56:19;;;;;;;10.40;9.30;;;;;;;;;;5074005;28;20857;-74
2021/07/23 04:58:46;;;;;;;11.63;8.33;;;;;;;;;;5074160;28;20811;-72
2021/07/23 05:01:13;;;;;;;10.30;9.20;;;;;;;;;;5074202;28;20793;-72
2021/07/23 05:03:40;;;;;;;11.97;8.90;;;;;;;;;;5073672;28;20894;-73
2021/07/23 05:06:08;;;;;;;9.67;8.67;;;;;;;;;;5073845;28;20441;-73
2021/07/23 05:08:37;;;;;;;10.17;9.10;;;;;;;;;;5074409;28;20790;-73
2021/07/23 05:11:05;;;;;;;14.80;10.10;;;;;;;;;;5073789;28;20447;-73
2021/07/23 05:13:33;;;;;;;12.13;8.70;;;;;;;;;;5074236;28;20452;-73
2021/07/23 05:16:00;;;;;;;13.03;8.97;;;;;;;;;;5073698;28;20447;-73
2021/07/23 05:18:28;;;;;;;9.83;8.33;;;;;;;;;;5073691;28;20442;-73
2021/07/23 05:20:55;;;;;;;9.03;8.07;;;;;;;;;;5074130;28;20807;-73
2021/07/23 05:23:22;;;;;;;8.93;8.00;;;;;;;;;;5073865;28;20799;-73
2021/07/23 05:25:51;;;;;;;14.20;8.10;;;;;;;;;;5073821;28;20824;-73
2021/07/23 05:28:19;;;;;;;8.67;7.80;;;;;;;;;;5074139;28;20440;-73
2021/07/23 05:30:47;;;;;;;9.20;7.70;;;;;;;;;;5073912;28;20441;-73
2021/07/23 05:33:14;;;;;;;14.33;9.03;;;;;;;;;;5073624;28;20451;-70
2021/07/23 05:35:41;;;;;;;12.57;9.23;;;;;;;;;;5073468;28;20450;-72
2021/07/23 05:38:14;;;;;;;9.90;8.90;;;;;;;;;;5073463;28;20440;-72
2021/07/23 05:40:41;;;;;;;9.37;8.33;;;;;;;;;;5074399;28;20423;-72
2021/07/23 05:43:09;;;;;;;8.90;8.07;;;;;;;;;;5073676;28;20445;-73
2021/07/23 05:45:39;;;;;;;14.40;9.73;;;;;;;;;;5073568;28;20488;-73
2021/07/23 05:48:06;;;;;;;10.53;9.40;;;;;;;;;;5073302;28;20446;-73
2021/07/23 05:50:33;;;;;;;10.03;8.93;;;;;;;;;;5073526;28;20441;-74
2021/07/23 05:53:00;;;;;;;9.40;8.50;;;;;;;;;;5073322;28;20441;-73
2021/07/23 05:55:28;;;;;;;9.73;8.77;;;;;;;;;;5073591;28;20437;-73
2021/07/23 05:57:57;;;;;;;10.30;8.60;;;;;;;;;;5073692;28;20447;-73
2021/07/23 06:00:26;;;;;;;9.57;8.57;;;;;;;;;;5073549;28;20452;-73
2021/07/23 06:02:54;;;;;;;9.17;8.23;;;;;;;;;;5073671;28;20501;-73
2021/07/23 06:05:31;;;;;;;;;;;;;;;;;;;;;
2021/07/23 06:08:00;;;;;;;10.90;7.60;;;;;;;;;;5069335;28;20475;-74
2021/07/23 06:10:27;;;;;;;16.40;8.20;;;;;;;;;;5077529;28;20538;-74
2021/07/23 06:12:54;;;;;;;9.43;7.47;;;;;;;;;;5077695;28;20447;-74
2021/07/23 06:15:21;;;;;;;8.00;7.20;;;;;;;;;;5077819;28;20449;-74
2021/07/23 06:17:50;;;;;;;8.73;7.87;;;;;;;;;;5077134;28;20813;-74
2021/07/23 06:20:17;;;;;;;9.50;7.37;;;;;;;;;;5077034;28;20444;-74
2021/07/23 06:22:44;;;;;;;8.07;6.97;;;;;;;;;;5077277;28;20443;-74
2021/07/23 06:25:12;;;;;;;13.37;8.23;;;;;;;;;;5076827;28;20992;-74
2021/07/23 06:27:39;;;;;;;11.10;6.90;;;;;;;;;;5077552;28;20440;-74
2021/07/23 06:30:07;;;;;;;13.33;8.10;;;;;;;;;;5076889;28;20438;-74
2021/07/23 06:32:34;;;;;;;7.83;6.37;;;;;;;;;;5076767;28;20458;-75
2021/07/23 06:35:03;;;;;;;12.67;8.40;;;;;;;;;;5077178;28;20446;-74
2021/07/23 06:37:30;;;;;;;16.73;7.47;;;;;;;;;;5077142;28;20451;-74
2021/07/23 06:39:57;;;;;;;8.37;7.47;;;;;;;;;;5077188;28;20448;-75
2021/07/23 06:42:24;;;;;;;7.67;6.83;;;;;;;;;;5076589;28;20456;-75
2021/07/23 06:45:00;;;;;;;10.07;5.97;;;;;;;;;;5077183;28;20468;-74
2021/07/23 06:47:28;;;;;;;6.13;5.63;;;;;;;;;;5076407;28;20452;-75
2021/07/23 06:49:55;;;;;;;6.73;5.67;;;;;;;;;;5076647;28;20818;-74
2021/07/23 06:52:24;;;;;;;6.93;5.50;;;;;;;;;;5076799;28;20772;-74
2021/07/23 06:54:51;;;;;;;5.97;5.00;;;;;;;;;;5076786;28;20445;-74
2021/07/23 06:57:19;;;;;;;7.80;5.37;;;;;;;;;;5076267;28;20476;-74
2021/07/23 06:59:46;;;;;;;17.77;5.83;;;;;;;;;;5076282;28;20448;-75
2021/07/23 07:02:13;;;;;;;7.80;5.20;;;;;;;;;;5076501;28;20573;-75
2021/07/23 07:04:42;;;;;;;6.53;4.87;;;;;;;;;;5076136;28;20973;-75
2021/07/23 07:07:11;;;;;;;13.00;4.70;;;;;;;;;;5076911;28;20476;-75
2021/07/23 07:09:40;;;;;;;8.47;5.50;;;;;;;;;;5076416;28;20495;-75
2021/07/23 07:12:07;;;;;;;7.67;5.40;;;;;;;;;;5076370;28;20497;-75
2021/07/23 07:14:34;;;;;;;7.50;4.33;;;;;;;;;;5076381;28;20439;-76
2021/07/23 07:17:01;;;;;;;7.43;5.10;;;;;;;;;;5076427;28;20444;-75
2021/07/23 07:19:28;;;;;;;5.63;4.60;;;;;;;;;;5075770;28;20444;-74
2021/07/23 07:21:56;;;;;;;4.57;4.17;;;;;;;;;;5076129;28;20449;-75
2021/07/23 07:24:23;;;;;;;4.90;4.30;;;;;;;;;;5075760;28;20447;-75
2021/07/23 07:26:52;;;;;;;5.80;5.03;;;;;;;;;;5076570;28;20449;-74
2021/07/23 07:29:19;;;;;;;5.90;5.30;;;;;;;;;;5076439;28;20469;-75
2021/07/23 07:31:47;;;;;;;5.77;5.27;;;;;;;;;;5075672;28;20445;-76
2021/07/23 07:34:14;;;;;;;9.03;5.37;;;;;;;;;;5075668;28;20444;-75
2021/07/23 07:36:41;;;;;;;5.90;5.30;;;;;;;;;;5075590;28;20449;-75
2021/07/23 07:39:09;;;;;;;6.93;5.43;;;;;;;;;;5075548;28;20440;-75
2021/07/23 07:41:36;;;;;;;5.17;4.60;;;;;;;;;;5075466;28;20441;-75
2021/07/23 07:44:05;;;;;;;8.53;5.43;;;;;;;;;;5075474;28;20447;-74
2021/07/23 07:46:33;;;;;;;5.93;5.17;;;;;;;;;;5075548;28;20816;-75
2021/07/23 07:49:00;;;;;;;6.00;5.40;;;;;;;;;;5075622;28;20836;-75
2021/07/23 07:51:27;;;;;;;5.27;4.63;;;;;;;;;;5075721;28;20445;-73
2021/07/23 07:53:54;;;;;;;5.67;5.17;;;;;;;;;;5075640;28;20451;-74
2021/07/23 07:56:22;;;;;;;4.87;4.37;;;;;;;;;;5075463;28;20446;-75
2021/07/23 07:58:49;;;;;;;5.27;4.73;;;;;;;;;;5075146;28;20447;-76
2021/07/23 08:01:17;;;;;;;6.80;5.10;;;;;;;;;;5075117;28;20991;-76
2021/07/23 08:03:45;;;;;;;5.50;5.00;;;;;;;;;;5075358;28;20548;-77
2021/07/23 08:06:20;;;;;;;9.63;5.70;;;;;;;;;;5074842;28;20483;-75
2021/07/23 08:08:48;;;;;;;5.90;5.10;;;;;;;;;;5075623;28;20429;-75
2021/07/23 08:11:15;;;;;;;6.10;4.90;;;;;;;;;;5075750;28;20629;-75
2021/07/23 08:13:42;;;;;;;5.07;4.57;;;;;;;;;;5075165;28;20446;-76
2021/07/23 08:16:11;;;;;;;7.23;5.30;;;;;;;;;;5075057;28;20445;-75
2021/07/23 08:18:40;;;;;;;10.03;4.30;;;;;;;;;;5074708;28;20452;-76
2021/07/23 08:21:08;;;;;;;6.20;5.00;;;;;;;;;;5075076;28;20447;-76
2021/07/23 08:23:36;;;;;;;7.00;4.67;;;;;;;;;;5075073;28;20453;-76
2021/07/23 08:26:04;;;;;;;6.07;4.77;;;;;;;;;;5075718;28;20484;-76
2021/07/23 08:28:31;;;;;;;5.07;4.60;;;;;;;;;;5074924;28;20784;-77
2021/07/23 08:30:59;;;;;;;5.10;4.60;;;;;;;;;;5074367;28;20541;-77
2021/07/23 08:33:28;;;;;;;5.17;4.67;;;;;;;;;;5074367;28;20438;-76
2021/07/23 08:35:56;;;;;;;7.67;4.90;;;;;;;;;;5074751;28;20458;-77
2021/07/23 08:38:23;;;;;;;4.90;4.47;;;;;;;;;;5075313;28;20805;-77
2021/07/23 08:40:51;;;;;;;5.30;4.80;;;;;;;;;;5074399;28;20461;-77
2021/07/23 08:43:18;;;;;;;7.47;4.50;;;;;;;;;;5074638;28;20442;-77
2021/07/23 08:45:45;;;;;;;4.37;3.97;;;;;;;;;;5074386;28;20478;-77
2021/07/23 08:48:12;;;;;;;4.83;4.37;;;;;;;;;;5074807;28;20458;-76
2021/07/23 08:50:40;;;;;;;4.43;4.03;;;;;;;;;;5074234;28;20969;-77
2021/07/23 08:53:11;;;;;;;5.90;4.37;;;;;;;;;;5074481;28;20445;-76
2021/07/23 08:55:39;;;;;;;9.00;3.83;;;;;;;;;;5074662;28;20929;-77
2021/07/23 08:58:10;;;;;;;4.73;3.67;;;;;;;;;;5074064;28;20536;-77
2021/07/23 09:00:37;;;;;;;6.40;4.60;;;;;;;;;;5074188;28;20905;-78
2021/07/23 09:03:05;;;;;;;7.77;5.20;;;;;;;;;;5074241;28;20450;-77
2021/07/23 09:05:33;;;;;;;6.53;4.20;;;;;;;;;;5074135;28;20484;-77
2021/07/23 09:08:01;;;;;;;4.83;4.30;;;;;;;;;;5074691;28;20564;-76
2021/07/23 09:10:30;;;;;;;4.57;4.17;;;;;;;;;;5073830;28;20443;-76
2021/07/23 09:13:00;;;;;;;4.23;3.83;;;;;;;;;;5074423;28;20793;-77
2021/07/23 09:15:28;;;;;;;4.97;4.40;;;;;;;;;;5074149;28;20443;-76
2021/07/23 09:17:56;;;;;;;6.00;3.90;;;;;;;;;;5074398;28;20446;-77
2021/07/23 09:20:24;;;;;;;7.77;5.70;;;;;;;;;;5074176;28;20451;-77
2021/07/23 09:22:52;;;;;;;11.80;7.30;;;;;;;;;;5073961;28;20521;-77
2021/07/23 09:25:34;;;;;;;6.47;5.13;;;;;;;;;;5073887;28;20481;-77
2021/07/23 09:28:02;;;;;;;6.63;4.20;;;;;;;;;;5074339;28;20485;-76
2021/07/23 09:30:45;;;;;;;5.83;4.37;;;;;;;;;;5073708;28;20529;-75
2021/07/23 09:33:13;;;;;;;9.00;4.87;;;;;;;;;;5073551;28;20515;-75
2021/07/23 09:35:51;;;;;;;4.73;4.10;;;;;;;;;;5073792;28;20561;-76
2021/07/23 09:38:18;;;;;;;5.80;4.50;;;;;;;;;;5073469;28;20430;-76
2021/07/23 09:40:48;;;;;;;6.23;4.77;;;;;;;;;;5073661;28;20439;-74
2021/07/23 09:43:29;;;;;;;4.30;3.90;;;;;;;;;;5073526;28;20478;-73
2021/07/23 09:45:56;;;;;;;5.30;4.77;;;;;;;;;;5073332;28;20469;-75
2021/07/23 09:48:23;;;;;;;6.73;5.33;;;;;;;;;;5073922;28;20454;-75
2021/07/23 09:50:50;;;;;;;5.13;4.70;;;;;;;;;;5073311;28;20449;-77
2021/07/23 09:53:20;;;;;;;5.20;4.47;;;;;;;;;;5073554;28;20515;-75
2021/07/23 09:55:49;;;;;;;7.00;4.73;;;;;;;;;;5073204;28;20450;-75
2021/07/23 09:58:20;;;;;;;5.33;4.83;;;;;;;;;;5073122;28;20453;-76
2021/07/23 10:00:50;;;;;;;5.10;4.60;;;;;;;;;;5073461;28;20430;-75
2021/07/23 10:03:18;;;;;;;6.70;4.10;;;;;;;;;;5073119;28;20453;-73
2021/07/23 10:05:52;;;;;;;4.83;4.00;;;;;;;;;;5073755;28;21055;-74
2021/07/23 10:08:22;;;;;;;4.87;4.40;;;;;;;;;;5073496;28;20447;-75
2021/07/23 10:10:52;;;;;;;4.43;4.03;;;;;;;;;;5073835;28;20441;-74
2021/07/23 10:13:20;;;;;;;5.63;3.87;;;;;;;;;;5073007;28;20427;-75
2021/07/23 10:15:48;;;;;;;7.37;4.87;;;;;;;;;;5073724;28;20441;-73
2021/07/23 10:18:16;;;;;;;5.20;4.70;;;;;;;;;;5072891;28;20472;-74
2021/07/23 10:20:44;;;;;;;5.30;4.47;;;;;;;;;;5073532;28;20512;-73
2021/07/23 10:23:12;;;;;;;7.90;4.40;;;;;;;;;;5072966;28;20455;-75
2021/07/23 10:25:39;;;;;;;6.87;4.13;;;;;;;;;;5072792;28;20482;-73
2021/07/23 10:28:08;;;;;;;4.87;3.90;;;;;;;;;;5073277;28;20454;-75
2021/07/23 10:30:35;;;;;;;4.70;4.40;;;;;;;;;;5074023;28;20444;-76
2021/07/23 10:33:03;;;;;;;4.43;3.97;;;;;;;;;;5072968;28;20542;-75
2021/07/23 10:35:32;;;;;;;4.97;4.43;;;;;;;;;;5072964;28;20456;-74
2021/07/23 10:37:59;;;;;;;4.20;3.80;;;;;;;;;;5073273;28;20444;-76
2021/07/23 10:40:34;;;;;;;4.53;4.10;;;;;;;;;;5073093;28;20434;-74
2021/07/23 10:43:01;;;;;;;6.23;5.40;;;;;;;;;;5073117;28;20461;-75
2021/07/23 10:45:42;;;;;;;8.63;6.37;;;;;;;;;;5072709;28;20957;-74
2021/07/23 10:48:10;;;;;;;4.13;3.73;;;;;;;;;;5073411;28;20449;-76
2021/07/23 10:50:49;;;;;;;4.73;4.13;;;;;;;;;;5072711;28;20441;-76
2021/07/23 10:53:36;;;;;;;3.50;3.20;;;;;;;;;;5072991;28;20534;-76
2021/07/23 10:56:03;;;;;;;4.57;4.03;;;;;;;;;;5075275;28;20458;-75
2021/07/23 10:58:34;;;;;;;3.87;3.53;;;;;;;;;;5076337;28;20440;-75
2021/07/23 11:01:03;;;;;;;7.83;4.80;;;;;;;;;;5077024;28;20460;-76
2021/07/23 11:03:49;;;;;;;7.13;4.57;;;;;;;;;;5076712;28;20443;-74
2021/07/23 11:06:20;;;;;;;7.23;3.60;;;;;;;;;;5076860;28;20486;-75
2021/07/23 11:08:48;;;;;;;7.20;4.30;;;;;;;;;;5076744;28;20965;-74
2021/07/23 11:11:15;;;;;;;4.57;4.17;;;;;;;;;;5075958;28;20533;-73
2021/07/23 11:13:42;;;;;;;5.33;4.83;;;;;;;;;;5076090;28;20958;-73
2021/07/23 11:16:11;;;;;;;3.97;3.63;;;;;;;;;;5076406;28;20454;-73
2021/07/23 11:18:50;;;;;;;5.63;3.93;;;;;;;;;;5076443;28;20546;-75
2021/07/23 11:21:17;;;;;;;4.50;3.80;;;;;;;;;;5076460;28;20514;-75
2021/07/23 11:23:46;;;;;;;4.53;4.10;;;;;;;;;;5076304;28;20468;-75
2021/07/23 11:26:14;;;;;;;5.20;3.63;;;;;;;;;;5076077;28;20479;-75
2021/07/23 11:28:48;;;;;;;4.30;3.60;;;;;;;;;;5076728;28;20448;-76
2021/07/23 11:31:29;;;;;;;5.33;3.90;;;;;;;;;;5075965;28;20448;-74
2021/07/23 11:33:57;;;;;;;5.80;3.80;;;;;;;;;;5076520;28;20424;-72
2021/07/23 11:36:34;;;;;;;4.00;3.50;;;;;;;;;;5075580;28;20453;-73
2021/07/23 11:39:02;;;;;;;4.33;3.93;;;;;;;;;;5075651;28;20447;-74
2021/07/23 11:41:29;;;;;;;12.43;6.50;;;;;;;;;;5075910;28;20478;-73
2021/07/23 11:44:06;;;;;;;4.33;3.90;;;;;;;;;;5075839;28;20464;-73
2021/07/23 11:46:34;;;;;;;7.03;3.90;;;;;;;;;;5075627;28;20471;-73
2021/07/23 11:49:01;;;;;;;4.00;3.70;;;;;;;;;;5075452;28;20447;-73
2021/07/23 11:51:38;;;;;;;3.83;3.53;;;;;;;;;;5075830;28;20445;-73
2021/07/23 11:54:06;;;;;;;3.73;3.40;;;;;;;;;;5075757;28;20908;-73
2021/07/23 11:56:34;;;;;;;4.13;3.33;;;;;;;;;;5075566;28;20443;-74
2021/07/23 11:59:03;;;;;;;3.73;3.43;;;;;;;;;;5076165;28;20452;-73
2021/07/23 12:01:35;;;;;;;3.83;3.43;;;;;;;;;;5075272;28;20502;-73
2021/07/23 12:04:03;;;;;;;4.17;3.60;;;;;;;;;;5075241;28;20432;-72
2021/07/23 12:06:30;;;;;;;4.13;3.83;;;;;;;;;;5074596;28;21004;-74
2021/07/23 12:08:58;;;;;;;3.13;2.90;;;;;;;;;;5075467;28;20432;-73
2021/07/23 12:11:26;;;;;;;3.50;3.20;;;;;;;;;;5075001;28;20438;-73
2021/07/23 12:13:53;;;;;;;2.50;2.27;;;;;;;;;;5075466;28;20883;-75
2021/07/23 12:16:21;;;;;;;6.90;3.57;;;;;;;;;;5075486;28;20592;-74
2021/07/23 12:18:58;;;;;;;3.90;3.50;;;;;;;;;;5074593;28;20457;-74
2021/07/23 12:21:26;;;;;;;4.53;3.60;;;;;;;;;;5074900;28;20452;-75
2021/07/23 12:23:57;;;;;;;4.30;3.90;;;;;;;;;;5075072;28;20436;-74
2021/07/23 12:26:32;;;;;;;3.93;3.60;;;;;;;;;;5075109;28;20566;-74
2021/07/23 12:28:59;;;;;;;3.77;3.43;;;;;;;;;;5074628;28;20489;-76
2021/07/23 12:31:27;;;;;;;3.97;3.00;;;;;;;;;;5074617;28;20971;-74
2021/07/23 12:34:05;;;;;;;3.67;3.37;;;;;;;;;;5074762;28;20446;-72
2021/07/23 12:36:47;;;;;;;5.10;4.60;;;;;;;;;;5074356;28;21008;-76
2021/07/23 12:39:14;;;;;;;3.27;3.07;;;;;;;;;;5074926;28;20872;-75
2021/07/23 12:41:42;;;;;;;5.33;3.10;;;;;;;;;;5074845;28;20440;-74
2021/07/23 12:44:10;;;;;;;6.13;3.50;;;;;;;;;;5074412;28;20933;-75
2021/07/23 12:46:38;;;;;;;3.50;3.07;;;;;;;;;;5074129;28;20476;-74
2021/07/23 12:49:14;;;;;;;3.90;3.50;;;;;;;;;;5075371;28;20445;-74
2021/07/23 12:51:41;;;;;;;3.70;3.40;;;;;;;;;;5074167;28;20436;-74
2021/07/23 12:54:09;;;;;;;5.40;3.70;;;;;;;;;;5074509;28;20490;-74
2021/07/23 12:56:37;;;;;;;4.07;3.40;;;;;;;;;;5073935;28;20438;-70
2021/07/23 12:59:23;;;;;;;4.43;3.17;;;;;;;;;;5074382;28;20809;-73
2021/07/23 13:01:50;;;;;;;4.63;3.67;;;;;;;;;;5074075;28;20989;-75
2021/07/23 13:04:19;;;;;;;5.00;2.90;;;;;;;;;;5074134;28;20799;-74
2021/07/23 13:06:46;;;;;;;5.17;3.13;;;;;;;;;;5073729;28;20512;-74
2021/07/23 13:09:14;;;;;;;3.67;2.97;;;;;;;;;;5074094;28;20968;-69
2021/07/23 13:11:41;;;;;;;3.60;3.30;;;;;;;;;;5074366;28;20441;-74
2021/07/23 13:14:08;;;;;;;3.63;3.03;;;;;;;;;;5074067;28;20436;-73
2021/07/23 13:16:35;;;;;;;2.73;2.53;;;;;;;;;;5074772;28;20451;-74
2021/07/23 13:19:02;;;;;;;3.23;2.93;;;;;;;;;;5073005;28;20445;-74
2021/07/23 13:21:31;;;;;;;3.80;3.23;;;;;;;;;;5073837;28;20444;-74
2021/07/23 13:24:00;;;;;;;3.57;3.03;;;;;;;;;;5073903;28;20447;-73
2021/07/23 13:26:27;;;;;;;4.83;3.10;;;;;;;;;;5074057;28;20449;-73
2021/07/23 13:28:55;;;;;;;3.03;2.80;;;;;;;;;;5073653;28;20953;-73
2021/07/23 13:31:22;;;;;;;3.43;3.13;;;;;;;;;;5073803;28;20455;-79
2021/07/23 13:33:51;;;;;;;3.43;2.70;;;;;;;;;;5074036;28;20447;-76
2021/07/23 13:36:22;;;;;;;4.07;3.63;;;;;;;;;;5074136;28;20445;-74
2021/07/23 13:38:53;;;;;;;7.60;4.20;;;;;;;;;;5073396;28;20437;-73
2021/07/23 13:41:22;;;;;;;4.30;3.03;;;;;;;;;;5073875;28;20434;-75
2021/07/23 13:43:49;;;;;;;3.57;3.23;;;;;;;;;;5073505;28;20449;-74
2021/07/23 13:46:16;;;;;;;4.43;3.13;;;;;;;;;;5073316;28;20445;-73
2021/07/23 13:48:46;;;;;;;3.63;3.33;;;;;;;;;;5073107;28;20473;-73
2021/07/23 13:51:14;;;;;;;4.37;3.70;;;;;;;;;;5073679;28;20540;-74
2021/07/23 13:53:42;;;;;;;3.40;3.10;;;;;;;;;;5073729;28;20511;-73
2021/07/23 13:56:11;;;;;;;5.93;3.07;;;;;;;;;;5073483;28;20446;-76
2021/07/23 13:58:38;;;;;;;3.30;3.00;;;;;;;;;;5073456;28;20447;-74
2021/07/23 14:01:06;;;;;;;6.10;3.60;;;;;;;;;;5073732;28;20439;-74
2021/07/23 14:03:33;;;;;;;4.00;3.10;;;;;;;;;;5073534;28;20418;-74
2021/07/23 14:06:00;;;;;;;3.10;2.83;;;;;;;;;;5073582;28;20516;-74
2021/07/23 14:08:27;;;;;;;3.87;3.23;;;;;;;;;;5072976;28;20906;-73
2021/07/23 14:10:54;;;;;;;4.60;3.60;;;;;;;;;;5073392;28;20417;-74
2021/07/23 14:13:23;;;;;;;3.53;3.23;;;;;;;;;;5073068;28;20456;-74
2021/07/23 14:15:50;;;;;;;4.10;3.20;;;;;;;;;;5072941;28;20444;-73
2021/07/23 14:18:17;;;;;;;3.90;3.60;;;;;;;;;;5089356;28;20461;-73
2021/07/23 14:20:45;;;;;;;3.07;2.67;;;;;;;;;;5093549;28;20449;-73
2021/07/23 14:23:12;;;;;;;3.87;3.57;;;;;;;;;;5093582;28;20537;-73
2021/07/23 14:25:39;;;;;;;3.37;3.07;;;;;;;;;;5093170;28;20443;-73
2021/07/23 14:28:07;;;;;;;4.87;4.37;;;;;;;;;;5093603;28;20497;-73
2021/07/23 14:30:36;;;;;;;5.23;3.20;;;;;;;;;;5095348;28;20528;-73
2021/07/23 14:33:03;;;;;;;3.37;3.07;;;;;;;;;;5097021;28;20914;-73
2021/07/23 14:35:31;;;;;;;4.30;2.90;;;;;;;;;;5097339;28;20526;-73
2021/07/23 14:37:58;;;;;;;3.40;3.20;;;;;;;;;;5096912;28;20945;-74
2021/07/23 14:40:26;;;;;;;2.43;2.33;;;;;;;;;;5097112;28;20761;-73
2021/07/23 14:42:53;;;;;;;3.50;2.70;;;;;;;;;;5096878;28;20445;-72
2021/07/23 14:45:20;;;;;;;3.30;2.73;;;;;;;;;;5097129;28;20436;-74
2021/07/23 14:47:49;;;;;;;4.97;3.40;;;;;;;;;;5096967;28;20557;-74